sensor_id;sensor_type;location;lat;lon;timestamp;temperature;humidity
39695;DHT22;25367;-35.352;149.036;2022-11-20T00:00:35;21.30;58.10
39695;DHT22;25367;-35.352;149.036;2022-11-20T00:03:05;21.40;58.10
39695;DHT22;25367;-35.352;149.036;2022-11-20T00:05:36;21.40;58.00
39695;DHT22;25367;-35.352;149.036;2022-11-20T00:08:06;21.50;58.00
39695;DHT22;25367;-35.352;149.036;2022-11-20T00:10:37;21.60;58.00
39695;DHT22;25367;-35.352;149.036;2022-11-20T00:13:08;21.70;57.90
39695;DHT22;25367;-35.352;149.036;2022-11-20T00:15:37;21.80;57.90
39695;DHT22;25367;-35.352;149.036;2022-11-20T00:18:06;21.80;57.70
39695;DHT22;25367;-35.352;149.036;2022-11-20T00:20:38;21.90;58.30
39695;DHT22;25367;-35.352;149.036;2022-11-20T00:23:07;22.00;57.60
39695;DHT22;25367;-35.352;149.036;2022-11-20T00:25:37;22.00;57.50
39695;DHT22;25367;-35.352;149.036;2022-11-20T00:28:06;22.10;57.40
39695;DHT22;25367;-35.352;149.036;2022-11-20T00:30:36;22.20;57.30
39695;DHT22;25367;-35.352;149.036;2022-11-20T00:33:06;22.20;57.20
39695;DHT22;25367;-35.352;149.036;2022-11-20T00:35:37;22.30;57.20
39695;DHT22;25367;-35.352;149.036;2022-11-20T00:38:07;22.30;57.10
39695;DHT22;25367;-35.352;149.036;2022-11-20T00:40:36;22.40;57.10
39695;DHT22;25367;-35.352;149.036;2022-11-20T00:43:05;22.40;57.10
39695;DHT22;25367;-35.352;149.036;2022-11-20T00:45:35;22.50;57.00
39695;DHT22;25367;-35.352;149.036;2022-11-20T00:48:04;22.50;56.80
39695;DHT22;25367;-35.352;149.036;2022-11-20T00:50:34;22.50;56.80
39695;DHT22;25367;-35.352;149.036;2022-11-20T00:53:06;22.60;56.70
39695;DHT22;25367;-35.352;149.036;2022-11-20T00:55:36;22.60;56.70
39695;DHT22;25367;-35.352;149.036;2022-11-20T00:58:06;22.60;56.60
39695;DHT22;25367;-35.352;149.036;2022-11-20T01:00:35;22.70;56.60
39695;DHT22;25367;-35.352;149.036;2022-11-20T01:03:05;22.70;56.50
39695;DHT22;25367;-35.352;149.036;2022-11-20T01:05:36;22.70;56.40
39695;DHT22;25367;-35.352;149.036;2022-11-20T01:08:25;22.70;56.00
39695;DHT22;25367;-35.352;149.036;2022-11-20T01:11:00;22.70;55.60
39695;DHT22;25367;-35.352;149.036;2022-11-20T01:13:30;22.70;55.20
39695;DHT22;25367;-35.352;149.036;2022-11-20T01:16:03;22.60;54.70
39695;DHT22;25367;-35.352;149.036;2022-11-20T01:18:33;22.60;54.50
39695;DHT22;25367;-35.352;149.036;2022-11-20T01:21:04;22.50;54.30
39695;DHT22;25367;-35.352;149.036;2022-11-20T01:23:39;22.50;54.60
39695;DHT22;25367;-35.352;149.036;2022-11-20T01:26:09;22.50;54.80
39695;DHT22;25367;-35.352;149.036;2022-11-20T01:28:39;22.50;54.70
39695;DHT22;25367;-35.352;149.036;2022-11-20T01:31:16;22.50;54.70
39695;DHT22;25367;-35.352;149.036;2022-11-20T01:33:48;22.40;54.90
39695;DHT22;25367;-35.352;149.036;2022-11-20T01:36:20;22.40;55.30
39695;DHT22;25367;-35.352;149.036;2022-11-20T01:38:52;22.40;54.70
39695;DHT22;25367;-35.352;149.036;2022-11-20T01:41:22;22.40;54.80
39695;DHT22;25367;-35.352;149.036;2022-11-20T01:43:52;22.40;54.80
39695;DHT22;25367;-35.352;149.036;2022-11-20T01:46:22;22.30;54.80
39695;DHT22;25367;-35.352;149.036;2022-11-20T01:48:54;22.30;54.80
39695;DHT22;25367;-35.352;149.036;2022-11-20T01:51:30;22.30;54.80
39695;DHT22;25367;-35.352;149.036;2022-11-20T01:54:05;22.30;54.90
39695;DHT22;25367;-35.352;149.036;2022-11-20T01:56:38;22.30;54.90
39695;DHT22;25367;-35.352;149.036;2022-11-20T01:59:09;22.30;55.50
39695;DHT22;25367;-35.352;149.036;2022-11-20T02:01:40;22.30;55.00
39695;DHT22;25367;-35.352;149.036;2022-11-20T02:04:11;22.20;55.00
39695;DHT22;25367;-35.352;149.036;2022-11-20T02:06:43;22.20;55.00
39695;DHT22;25367;-35.352;149.036;2022-11-20T02:09:17;22.30;55.10
39695;DHT22;25367;-35.352;149.036;2022-11-20T02:11:46;22.20;55.10
39695;DHT22;25367;-35.352;149.036;2022-11-20T02:14:16;22.30;55.30
39695;DHT22;25367;-35.352;149.036;2022-11-20T02:16:47;22.30;55.30
39695;DHT22;25367;-35.352;149.036;2022-11-20T02:19:22;22.30;55.30
39695;DHT22;25367;-35.352;149.036;2022-11-20T02:21:58;22.30;55.40
39695;DHT22;25367;-35.352;149.036;2022-11-20T02:24:31;22.30;55.40
39695;DHT22;25367;-35.352;149.036;2022-11-20T02:27:02;22.30;55.40
39695;DHT22;25367;-35.352;149.036;2022-11-20T02:29:35;22.30;55.40
39695;DHT22;25367;-35.352;149.036;2022-11-20T02:32:10;22.30;55.50
39695;DHT22;25367;-35.352;149.036;2022-11-20T02:34:47;22.30;55.50
39695;DHT22;25367;-35.352;149.036;2022-11-20T02:37:17;22.30;55.50
39695;DHT22;25367;-35.352;149.036;2022-11-20T02:39:50;22.30;55.50
39695;DHT22;25367;-35.352;149.036;2022-11-20T02:42:20;22.30;55.50
39695;DHT22;25367;-35.352;149.036;2022-11-20T02:44:50;22.30;55.50
39695;DHT22;25367;-35.352;149.036;2022-11-20T02:47:19;22.30;55.50
39695;DHT22;25367;-35.352;149.036;2022-11-20T02:49:48;22.30;55.50
39695;DHT22;25367;-35.352;149.036;2022-11-20T02:52:18;22.30;55.50
39695;DHT22;25367;-35.352;149.036;2022-11-20T02:54:50;22.30;55.50
39695;DHT22;25367;-35.352;149.036;2022-11-20T02:57:19;22.30;55.60
39695;DHT22;25367;-35.352;149.036;2022-11-20T02:59:49;22.30;55.60
39695;DHT22;25367;-35.352;149.036;2022-11-20T03:02:18;22.30;55.60
39695;DHT22;25367;-35.352;149.036;2022-11-20T03:04:48;22.40;55.60
39695;DHT22;25367;-35.352;149.036;2022-11-20T03:07:17;22.30;55.50
39695;DHT22;25367;-35.352;149.036;2022-11-20T03:09:50;22.30;55.60
39695;DHT22;25367;-35.352;149.036;2022-11-20T03:12:20;22.40;55.60
39695;DHT22;25367;-35.352;149.036;2022-11-20T03:14:49;22.30;55.50
39695;DHT22;25367;-35.352;149.036;2022-11-20T03:17:19;22.40;55.60
39695;DHT22;25367;-35.352;149.036;2022-11-20T03:19:48;22.40;55.60
39695;DHT22;25367;-35.352;149.036;2022-11-20T03:22:18;22.40;55.60
39695;DHT22;25367;-35.352;149.036;2022-11-20T03:24:49;22.40;55.60
39695;DHT22;25367;-35.352;149.036;2022-11-20T03:27:19;22.40;56.10
39695;DHT22;25367;-35.352;149.036;2022-11-20T03:29:48;22.40;55.50
39695;DHT22;25367;-35.352;149.036;2022-11-20T03:32:17;22.40;55.50
39695;DHT22;25367;-35.352;149.036;2022-11-20T03:34:47;22.40;55.50
39695;DHT22;25367;-35.352;149.036;2022-11-20T03:37:17;22.40;55.50
39695;DHT22;25367;-35.352;149.036;2022-11-20T03:39:48;22.40;55.50
39695;DHT22;25367;-35.352;149.036;2022-11-20T03:42:18;22.40;55.40
39695;DHT22;25367;-35.352;149.036;2022-11-20T03:44:47;22.40;55.40
39695;DHT22;25367;-35.352;149.036;2022-11-20T03:47:17;22.40;55.40
39695;DHT22;25367;-35.352;149.036;2022-11-20T03:49:46;22.40;55.40
39695;DHT22;25367;-35.352;149.036;2022-11-20T03:52:16;22.50;55.40
39695;DHT22;25367;-35.352;149.036;2022-11-20T03:54:45;22.40;55.40
39695;DHT22;25367;-35.352;149.036;2022-11-20T03:57:17;22.40;55.30
39695;DHT22;25367;-35.352;149.036;2022-11-20T03:59:46;22.40;55.40
39695;DHT22;25367;-35.352;149.036;2022-11-20T04:02:15;22.40;55.30
39695;DHT22;25367;-35.352;149.036;2022-11-20T04:04:45;22.40;55.30
39695;DHT22;25367;-35.352;149.036;2022-11-20T04:07:15;22.50;55.30
39695;DHT22;25367;-35.352;149.036;2022-11-20T04:09:44;22.50;55.30
39695;DHT22;25367;-35.352;149.036;2022-11-20T04:12:16;22.40;55.20
39695;DHT22;25367;-35.352;149.036;2022-11-20T04:14:45;22.50;55.30
39695;DHT22;25367;-35.352;149.036;2022-11-20T04:17:15;22.50;55.20
39695;DHT22;25367;-35.352;149.036;2022-11-20T04:19:44;22.50;55.20
39695;DHT22;25367;-35.352;149.036;2022-11-20T04:22:14;22.50;55.20
39695;DHT22;25367;-35.352;149.036;2022-11-20T04:24:43;22.50;55.20
39695;DHT22;25367;-35.352;149.036;2022-11-20T04:27:13;22.50;55.20
39695;DHT22;25367;-35.352;149.036;2022-11-20T04:29:44;22.50;55.20
39695;DHT22;25367;-35.352;149.036;2022-11-20T04:32:14;22.50;55.20
39695;DHT22;25367;-35.352;149.036;2022-11-20T04:34:46;22.50;55.20
39695;DHT22;25367;-35.352;149.036;2022-11-20T04:37:20;22.50;55.10
39695;DHT22;25367;-35.352;149.036;2022-11-20T04:39:49;22.60;55.20
39695;DHT22;25367;-35.352;149.036;2022-11-20T04:42:19;22.50;55.20
39695;DHT22;25367;-35.352;149.036;2022-11-20T04:44:52;22.50;55.10
39695;DHT22;25367;-35.352;149.036;2022-11-20T04:47:21;22.60;55.20
39695;DHT22;25367;-35.352;149.036;2022-11-20T04:49:51;22.60;55.20
39695;DHT22;25367;-35.352;149.036;2022-11-20T04:52:20;22.60;55.20
39695;DHT22;25367;-35.352;149.036;2022-11-20T04:54:50;22.60;55.10
39695;DHT22;25367;-35.352;149.036;2022-11-20T04:57:19;22.60;55.10
39695;DHT22;25367;-35.352;149.036;2022-11-20T04:59:50;22.60;55.10
39695;DHT22;25367;-35.352;149.036;2022-11-20T05:02:20;22.60;55.10
39695;DHT22;25367;-35.352;149.036;2022-11-20T05:04:49;22.60;55.00
39695;DHT22;25367;-35.352;149.036;2022-11-20T05:07:19;22.60;55.10
39695;DHT22;25367;-35.352;149.036;2022-11-20T05:09:48;22.70;55.10
39695;DHT22;25367;-35.352;149.036;2022-11-20T05:12:18;22.70;55.00
39695;DHT22;25367;-35.352;149.036;2022-11-20T05:14:49;22.70;55.00
39695;DHT22;25367;-35.352;149.036;2022-11-20T05:17:18;22.70;55.10
39695;DHT22;25367;-35.352;149.036;2022-11-20T05:19:48;22.70;55.10
39695;DHT22;25367;-35.352;149.036;2022-11-20T05:22:17;22.70;55.00
39695;DHT22;25367;-35.352;149.036;2022-11-20T05:24:47;22.70;55.00
39695;DHT22;25367;-35.352;149.036;2022-11-20T05:27:16;22.70;55.00
39695;DHT22;25367;-35.352;149.036;2022-11-20T05:29:46;22.80;55.10
39695;DHT22;25367;-35.352;149.036;2022-11-20T05:32:21;22.70;55.00
39695;DHT22;25367;-35.352;149.036;2022-11-20T05:34:51;22.80;55.20
39695;DHT22;25367;-35.352;149.036;2022-11-20T05:37:20;22.80;55.10
39695;DHT22;25367;-35.352;149.036;2022-11-20T05:39:50;22.80;55.10
39695;DHT22;25367;-35.352;149.036;2022-11-20T05:42:19;22.80;55.10
39695;DHT22;25367;-35.352;149.036;2022-11-20T05:44:49;22.80;55.20
39695;DHT22;25367;-35.352;149.036;2022-11-20T05:47:22;22.80;55.20
39695;DHT22;25367;-35.352;149.036;2022-11-20T05:49:51;22.90;55.20
39695;DHT22;25367;-35.352;149.036;2022-11-20T05:52:20;22.90;55.20
39695;DHT22;25367;-35.352;149.036;2022-11-20T05:54:50;22.90;55.20
39695;DHT22;25367;-35.352;149.036;2022-11-20T05:57:19;22.90;55.20
39695;DHT22;25367;-35.352;149.036;2022-11-20T05:59:49;22.90;55.10
39695;DHT22;25367;-35.352;149.036;2022-11-20T06:02:23;23.00;55.20
39695;DHT22;25367;-35.352;149.036;2022-11-20T06:04:52;22.90;55.20
39695;DHT22;25367;-35.352;149.036;2022-11-20T06:07:22;23.00;55.20
39695;DHT22;25367;-35.352;149.036;2022-11-20T06:09:51;23.00;55.20
39695;DHT22;25367;-35.352;149.036;2022-11-20T06:12:21;23.00;55.20
39695;DHT22;25367;-35.352;149.036;2022-11-20T06:14:50;23.00;55.10
39695;DHT22;25367;-35.352;149.036;2022-11-20T06:17:23;23.00;55.10
39695;DHT22;25367;-35.352;149.036;2022-11-20T06:19:52;23.10;55.20
39695;DHT22;25367;-35.352;149.036;2022-11-20T06:22:22;23.10;55.10
39695;DHT22;25367;-35.352;149.036;2022-11-20T06:24:51;23.10;55.10
39695;DHT22;25367;-35.352;149.036;2022-11-20T06:27:21;23.10;55.10
39695;DHT22;25367;-35.352;149.036;2022-11-20T06:29:50;23.20;55.20
39695;DHT22;25367;-35.352;149.036;2022-11-20T06:32:22;23.20;55.10
39695;DHT22;25367;-35.352;149.036;2022-11-20T06:34:51;23.20;55.20
39695;DHT22;25367;-35.352;149.036;2022-11-20T06:37:20;23.20;55.20
39695;DHT22;25367;-35.352;149.036;2022-11-20T06:39:50;23.20;55.20
39695;DHT22;25367;-35.352;149.036;2022-11-20T06:42:20;23.20;55.20
39695;DHT22;25367;-35.352;149.036;2022-11-20T06:44:49;23.30;55.30
39695;DHT22;25367;-35.352;149.036;2022-11-20T06:47:21;23.30;55.20
39695;DHT22;25367;-35.352;149.036;2022-11-20T06:49:51;23.30;55.20
39695;DHT22;25367;-35.352;149.036;2022-11-20T06:52:20;23.30;54.90
39695;DHT22;25367;-35.352;149.036;2022-11-20T06:54:49;23.40;54.70
39695;DHT22;25367;-35.352;149.036;2022-11-20T06:57:19;23.40;54.70
39695;DHT22;25367;-35.352;149.036;2022-11-20T06:59:48;23.40;54.50
39695;DHT22;25367;-35.352;149.036;2022-11-20T07:02:18;23.40;54.50
39695;DHT22;25367;-35.352;149.036;2022-11-20T07:04:49;23.50;54.70
39695;DHT22;25367;-35.352;149.036;2022-11-20T07:07:18;23.50;54.70
39695;DHT22;25367;-35.352;149.036;2022-11-20T07:09:54;23.50;54.60
39695;DHT22;25367;-35.352;149.036;2022-11-20T07:12:23;23.50;54.40
39695;DHT22;25367;-35.352;149.036;2022-11-20T07:14:52;23.60;54.30
39695;DHT22;25367;-35.352;149.036;2022-11-20T07:17:22;23.60;54.20
39695;DHT22;25367;-35.352;149.036;2022-11-20T07:19:55;23.60;54.10
39695;DHT22;25367;-35.352;149.036;2022-11-20T07:22:24;23.60;53.90
39695;DHT22;25367;-35.352;149.036;2022-11-20T07:24:54;23.60;53.90
39695;DHT22;25367;-35.352;149.036;2022-11-20T07:27:23;23.60;53.70
39695;DHT22;25367;-35.352;149.036;2022-11-20T07:29:52;23.70;53.70
39695;DHT22;25367;-35.352;149.036;2022-11-20T07:32:22;23.70;53.50
39695;DHT22;25367;-35.352;149.036;2022-11-20T07:34:54;23.70;53.40
39695;DHT22;25367;-35.352;149.036;2022-11-20T07:37:24;23.70;53.40
39695;DHT22;25367;-35.352;149.036;2022-11-20T07:39:53;23.60;53.10
39695;DHT22;25367;-35.352;149.036;2022-11-20T07:42:23;23.60;53.00
39695;DHT22;25367;-35.352;149.036;2022-11-20T07:44:53;23.70;52.90
39695;DHT22;25367;-35.352;149.036;2022-11-20T07:47:25;23.60;52.70
39695;DHT22;25367;-35.352;149.036;2022-11-20T07:49:57;23.60;52.70
39695;DHT22;25367;-35.352;149.036;2022-11-20T07:52:27;23.60;52.70
39695;DHT22;25367;-35.352;149.036;2022-11-20T07:54:57;23.60;52.60
39695;DHT22;25367;-35.352;149.036;2022-11-20T07:57:27;23.60;52.50
39695;DHT22;25367;-35.352;149.036;2022-11-20T07:59:56;23.60;52.20
39695;DHT22;25367;-35.352;149.036;2022-11-20T08:02:26;23.60;52.10
39695;DHT22;25367;-35.352;149.036;2022-11-20T08:04:58;23.60;52.10
39695;DHT22;25367;-35.352;149.036;2022-11-20T08:07:27;23.60;51.90
39695;DHT22;25367;-35.352;149.036;2022-11-20T08:09:57;23.60;51.90
39695;DHT22;25367;-35.352;149.036;2022-11-20T08:12:26;23.50;51.70
39695;DHT22;25367;-35.352;149.036;2022-11-20T08:14:56;23.50;51.80
39695;DHT22;25367;-35.352;149.036;2022-11-20T08:17:26;23.50;51.60
39695;DHT22;25367;-35.352;149.036;2022-11-20T08:19:57;23.50;51.50
39695;DHT22;25367;-35.352;149.036;2022-11-20T08:22:27;23.50;51.40
39695;DHT22;25367;-35.352;149.036;2022-11-20T08:24:56;23.50;51.20
39695;DHT22;25367;-35.352;149.036;2022-11-20T08:27:25;23.50;51.20
39695;DHT22;25367;-35.352;149.036;2022-11-20T08:29:55;23.40;51.10
39695;DHT22;25367;-35.352;149.036;2022-11-20T08:32:24;23.40;51.10
39695;DHT22;25367;-35.352;149.036;2022-11-20T08:34:53;23.30;51.10
39695;DHT22;25367;-35.352;149.036;2022-11-20T08:37:31;23.30;50.80
39695;DHT22;25367;-35.352;149.036;2022-11-20T08:40:01;23.30;51.10
39695;DHT22;25367;-35.352;149.036;2022-11-20T08:42:30;23.30;51.10
39695;DHT22;25367;-35.352;149.036;2022-11-20T08:45:00;23.30;51.20
39695;DHT22;25367;-35.352;149.036;2022-11-20T08:47:29;23.30;51.20
39695;DHT22;25367;-35.352;149.036;2022-11-20T08:49:59;23.30;51.30
39695;DHT22;25367;-35.352;149.036;2022-11-20T08:52:30;23.30;51.30
39695;DHT22;25367;-35.352;149.036;2022-11-20T08:54:59;23.30;51.50
39695;DHT22;25367;-35.352;149.036;2022-11-20T08:57:29;23.20;51.50
39695;DHT22;25367;-35.352;149.036;2022-11-20T09:00:00;23.20;51.60
39695;DHT22;25367;-35.352;149.036;2022-11-20T09:02:29;23.20;51.70
39695;DHT22;25367;-35.352;149.036;2022-11-20T09:04:59;23.20;51.70
39695;DHT22;25367;-35.352;149.036;2022-11-20T09:07:30;23.20;51.80
39695;DHT22;25367;-35.352;149.036;2022-11-20T09:10:03;23.20;51.80
39695;DHT22;25367;-35.352;149.036;2022-11-20T09:12:33;23.20;51.80
39695;DHT22;25367;-35.352;149.036;2022-11-20T09:15:02;23.20;51.80
39695;DHT22;25367;-35.352;149.036;2022-11-20T09:17:34;23.20;51.80
39695;DHT22;25367;-35.352;149.036;2022-11-20T09:20:04;23.10;51.90
39695;DHT22;25367;-35.352;149.036;2022-11-20T09:22:39;23.10;51.80
39695;DHT22;25367;-35.352;149.036;2022-11-20T09:25:09;23.10;51.80
39695;DHT22;25367;-35.352;149.036;2022-11-20T09:27:38;23.10;51.80
39695;DHT22;25367;-35.352;149.036;2022-11-20T09:30:08;23.10;51.90
39695;DHT22;25367;-35.352;149.036;2022-11-20T09:32:39;23.10;51.90
39695;DHT22;25367;-35.352;149.036;2022-11-20T09:35:09;23.10;51.80
39695;DHT22;25367;-35.352;149.036;2022-11-20T09:37:41;23.00;51.80
39695;DHT22;25367;-35.352;149.036;2022-11-20T09:40:19;23.00;51.80
39695;DHT22;25367;-35.352;149.036;2022-11-20T09:42:54;23.00;51.90
39695;DHT22;25367;-35.352;149.036;2022-11-20T09:45:31;23.00;51.60
39695;DHT22;25367;-35.352;149.036;2022-11-20T09:48:33;23.00;51.70
39695;DHT22;25367;-35.352;149.036;2022-11-20T09:51:12;22.90;52.00
39695;DHT22;25367;-35.352;149.036;2022-11-20T09:53:52;22.90;51.90
39695;DHT22;25367;-35.352;149.036;2022-11-20T09:56:24;22.90;51.90
39695;DHT22;25367;-35.352;149.036;2022-11-20T09:58:57;22.90;51.80
39695;DHT22;25367;-35.352;149.036;2022-11-20T10:01:31;22.90;51.80
39695;DHT22;25367;-35.352;149.036;2022-11-20T10:04:04;22.90;51.90
39695;DHT22;25367;-35.352;149.036;2022-11-20T10:06:40;22.90;51.90
39695;DHT22;25367;-35.352;149.036;2022-11-20T10:09:21;22.80;51.90
39695;DHT22;25367;-35.352;149.036;2022-11-20T10:12:03;22.80;52.00
39695;DHT22;25367;-35.352;149.036;2022-11-20T10:14:47;22.80;52.00
39695;DHT22;25367;-35.352;149.036;2022-11-20T10:17:27;22.80;52.10
39695;DHT22;25367;-35.352;149.036;2022-11-20T10:20:16;22.80;52.10
39695;DHT22;25367;-35.352;149.036;2022-11-20T10:22:54;22.80;52.20
39695;DHT22;25367;-35.352;149.036;2022-11-20T10:25:38;22.80;52.10
39695;DHT22;25367;-35.352;149.036;2022-11-20T10:28:23;22.70;52.10
39695;DHT22;25367;-35.352;149.036;2022-11-20T10:31:00;22.70;52.20
39695;DHT22;25367;-35.352;149.036;2022-11-20T10:33:34;22.80;52.10
39695;DHT22;25367;-35.352;149.036;2022-11-20T10:36:12;22.70;52.10
39695;DHT22;25367;-35.352;149.036;2022-11-20T10:38:44;22.70;52.10
39695;DHT22;25367;-35.352;149.036;2022-11-20T10:41:21;22.70;52.00
39695;DHT22;25367;-35.352;149.036;2022-11-20T10:43:56;22.70;52.10
39695;DHT22;25367;-35.352;149.036;2022-11-20T10:46:34;22.70;52.00
39695;DHT22;25367;-35.352;149.036;2022-11-20T10:49:13;22.70;52.00
39695;DHT22;25367;-35.352;149.036;2022-11-20T10:51:54;22.70;52.20
39695;DHT22;25367;-35.352;149.036;2022-11-20T10:54:32;22.70;52.20
39695;DHT22;25367;-35.352;149.036;2022-11-20T10:57:15;22.70;52.20
39695;DHT22;25367;-35.352;149.036;2022-11-20T11:00:01;22.60;52.10
39695;DHT22;25367;-35.352;149.036;2022-11-20T11:02:39;22.60;52.30
39695;DHT22;25367;-35.352;149.036;2022-11-20T11:05:23;22.60;52.10
39695;DHT22;25367;-35.352;149.036;2022-11-20T11:07:56;22.70;52.30
39695;DHT22;25367;-35.352;149.036;2022-11-20T11:10:31;22.60;52.10
39695;DHT22;25367;-35.352;149.036;2022-11-20T11:13:04;22.60;52.20
39695;DHT22;25367;-35.352;149.036;2022-11-20T11:15:39;22.60;52.20
39695;DHT22;25367;-35.352;149.036;2022-11-20T11:18:10;22.60;52.20
39695;DHT22;25367;-35.352;149.036;2022-11-20T11:20:40;22.60;52.10
39695;DHT22;25367;-35.352;149.036;2022-11-20T11:23:32;22.60;52.20
39695;DHT22;25367;-35.352;149.036;2022-11-20T11:26:05;22.60;52.30
39695;DHT22;25367;-35.352;149.036;2022-11-20T11:28:37;22.60;52.20
39695;DHT22;25367;-35.352;149.036;2022-11-20T11:31:07;22.50;52.10
39695;DHT22;25367;-35.352;149.036;2022-11-20T11:33:36;22.50;52.10
39695;DHT22;25367;-35.352;149.036;2022-11-20T11:36:17;22.50;52.10
39695;DHT22;25367;-35.352;149.036;2022-11-20T11:38:51;22.50;52.20
39695;DHT22;25367;-35.352;149.036;2022-11-20T11:41:23;22.50;52.10
39695;DHT22;25367;-35.352;149.036;2022-11-20T11:44:00;22.50;52.10
39695;DHT22;25367;-35.352;149.036;2022-11-20T11:46:33;22.50;52.10
39695;DHT22;25367;-35.352;149.036;2022-11-20T11:49:16;22.50;52.10
39695;DHT22;25367;-35.352;149.036;2022-11-20T11:52:03;22.50;52.20
39695;DHT22;25367;-35.352;149.036;2022-11-20T11:54:38;22.50;52.20
39695;DHT22;25367;-35.352;149.036;2022-11-20T11:57:15;22.50;52.10
39695;DHT22;25367;-35.352;149.036;2022-11-20T11:59:59;22.50;52.10
39695;DHT22;25367;-35.352;149.036;2022-11-20T12:02:35;22.50;52.10
39695;DHT22;25367;-35.352;149.036;2022-11-20T12:05:15;22.40;52.00
39695;DHT22;25367;-35.352;149.036;2022-11-20T12:07:48;22.40;52.10
39695;DHT22;25367;-35.352;149.036;2022-11-20T12:10:23;22.40;52.00
39695;DHT22;25367;-35.352;149.036;2022-11-20T12:12:55;22.40;52.00
39695;DHT22;25367;-35.352;149.036;2022-11-20T12:15:33;22.40;52.10
39695;DHT22;25367;-35.352;149.036;2022-11-20T12:18:06;22.40;52.10
39695;DHT22;25367;-35.352;149.036;2022-11-20T12:20:43;22.40;52.00
39695;DHT22;25367;-35.352;149.036;2022-11-20T12:23:20;22.40;52.10
39695;DHT22;25367;-35.352;149.036;2022-11-20T12:25:52;22.30;52.00
39695;DHT22;25367;-35.352;149.036;2022-11-20T12:28:36;22.30;52.00
39695;DHT22;25367;-35.352;149.036;2022-11-20T12:31:36;22.30;52.20
39695;DHT22;25367;-35.352;149.036;2022-11-20T12:34:18;22.20;52.20
39695;DHT22;25367;-35.352;149.036;2022-11-20T12:36:55;22.30;52.30
39695;DHT22;25367;-35.352;149.036;2022-11-20T12:39:46;22.20;52.20
39695;DHT22;25367;-35.352;149.036;2022-11-20T12:42:39;22.20;53.00
39695;DHT22;25367;-35.352;149.036;2022-11-20T12:45:34;22.20;52.30
39695;DHT22;25367;-35.352;149.036;2022-11-20T12:48:25;22.20;52.40
39695;DHT22;25367;-35.352;149.036;2022-11-20T12:51:12;22.20;52.50
39695;DHT22;25367;-35.352;149.036;2022-11-20T12:53:54;22.10;52.40
39695;DHT22;25367;-35.352;149.036;2022-11-20T12:56:35;22.10;52.50
39695;DHT22;25367;-35.352;149.036;2022-11-20T12:59:26;22.10;52.50
39695;DHT22;25367;-35.352;149.036;2022-11-20T13:02:02;22.10;52.50
39695;DHT22;25367;-35.352;149.036;2022-11-20T13:07:46;22.10;52.50
39695;DHT22;25367;-35.352;149.036;2022-11-20T13:10:27;22.00;52.40
39695;DHT22;25367;-35.352;149.036;2022-11-20T13:13:01;22.00;52.50
39695;DHT22;25367;-35.352;149.036;2022-11-20T13:15:48;22.00;52.50
39695;DHT22;25367;-35.352;149.036;2022-11-20T13:18:19;22.00;52.50
39695;DHT22;25367;-35.352;149.036;2022-11-20T13:20:49;22.00;52.50
39695;DHT22;25367;-35.352;149.036;2022-11-20T13:23:31;22.00;52.50
39695;DHT22;25367;-35.352;149.036;2022-11-20T13:26:14;22.00;52.50
39695;DHT22;25367;-35.352;149.036;2022-11-20T13:28:46;21.90;52.50
39695;DHT22;25367;-35.352;149.036;2022-11-20T13:31:40;21.90;52.50
39695;DHT22;25367;-35.352;149.036;2022-11-20T13:34:21;21.90;52.50
39695;DHT22;25367;-35.352;149.036;2022-11-20T13:36:53;21.90;52.50
39695;DHT22;25367;-35.352;149.036;2022-11-20T13:39:30;21.80;52.40
39695;DHT22;25367;-35.352;149.036;2022-11-20T13:42:01;21.80;52.50
39695;DHT22;25367;-35.352;149.036;2022-11-20T13:44:36;21.80;52.40
39695;DHT22;25367;-35.352;149.036;2022-11-20T13:47:21;21.80;52.50
39695;DHT22;25367;-35.352;149.036;2022-11-20T13:49:52;21.80;52.60
39695;DHT22;25367;-35.352;149.036;2022-11-20T13:52:36;21.80;52.50
39695;DHT22;25367;-35.352;149.036;2022-11-20T13:55:26;21.80;52.50
39695;DHT22;25367;-35.352;149.036;2022-11-20T13:58:16;21.70;52.50
39695;DHT22;25367;-35.352;149.036;2022-11-20T14:00:52;21.70;52.50
39695;DHT22;25367;-35.352;149.036;2022-11-20T14:03:25;21.70;52.50
39695;DHT22;25367;-35.352;149.036;2022-11-20T14:05:59;21.70;52.50
39695;DHT22;25367;-35.352;149.036;2022-11-20T14:08:35;21.70;52.50
39695;DHT22;25367;-35.352;149.036;2022-11-20T14:11:15;21.70;52.50
39695;DHT22;25367;-35.352;149.036;2022-11-20T14:13:56;21.70;52.50
39695;DHT22;25367;-35.352;149.036;2022-11-20T14:16:27;21.60;52.50
39695;DHT22;25367;-35.352;149.036;2022-11-20T14:19:00;21.60;52.40
39695;DHT22;25367;-35.352;149.036;2022-11-20T14:21:45;21.60;52.50
39695;DHT22;25367;-35.352;149.036;2022-11-20T14:24:20;21.60;52.50
39695;DHT22;25367;-35.352;149.036;2022-11-20T14:26:53;21.60;52.50
39695;DHT22;25367;-35.352;149.036;2022-11-20T14:29:26;21.50;52.40
39695;DHT22;25367;-35.352;149.036;2022-11-20T14:31:57;21.50;52.50
39695;DHT22;25367;-35.352;149.036;2022-11-20T14:34:29;21.50;52.40
39695;DHT22;25367;-35.352;149.036;2022-11-20T14:37:00;21.50;52.40
39695;DHT22;25367;-35.352;149.036;2022-11-20T14:39:32;21.50;52.50
39695;DHT22;25367;-35.352;149.036;2022-11-20T14:42:15;21.40;52.40
39695;DHT22;25367;-35.352;149.036;2022-11-20T14:44:46;21.50;52.50
39695;DHT22;25367;-35.352;149.036;2022-11-20T14:47:21;21.40;52.40
39695;DHT22;25367;-35.352;149.036;2022-11-20T14:49:51;21.40;52.50
39695;DHT22;25367;-35.352;149.036;2022-11-20T14:52:22;21.40;52.40
39695;DHT22;25367;-35.352;149.036;2022-11-20T14:54:53;21.40;52.50
39695;DHT22;25367;-35.352;149.036;2022-11-20T14:57:30;21.40;52.50
39695;DHT22;25367;-35.352;149.036;2022-11-20T15:00:08;21.40;52.50
39695;DHT22;25367;-35.352;149.036;2022-11-20T15:02:47;21.30;52.40
39695;DHT22;25367;-35.352;149.036;2022-11-20T15:05:18;21.30;52.40
39695;DHT22;25367;-35.352;149.036;2022-11-20T15:07:50;21.30;52.40
39695;DHT22;25367;-35.352;149.036;2022-11-20T15:10:24;21.30;52.40
39695;DHT22;25367;-35.352;149.036;2022-11-20T15:12:59;21.30;52.50
39695;DHT22;25367;-35.352;149.036;2022-11-20T15:15:33;21.30;52.50
39695;DHT22;25367;-35.352;149.036;2022-11-20T15:18:05;21.20;52.50
39695;DHT22;25367;-35.352;149.036;2022-11-20T15:20:37;21.20;52.50
39695;DHT22;25367;-35.352;149.036;2022-11-20T15:23:10;21.20;52.50
39695;DHT22;25367;-35.352;149.036;2022-11-20T15:25:40;21.20;52.50